Time;durP1;ratioP1;P1;durP2;ratioP2;P2;SDS_P1;SDS_P2;PMS_P1;PMS_P2;Temp;Humidity;BMP_temperature;BMP_pressure;BME280_temperature;BME280_humidity;BME280_pressure;Samples;Min_cycle;Max_cycle;Signal;HPM_P1;HPM_P2
2023/01/18 00:00:36;;;;;;;;;26.00;23.00;;;;;4.57;56.87;98817.94;5056531;28;45386;-74
2023/01/18 00:03:03;;;;;;;;;25.00;22.00;;;;;4.03;56.06;98720.84;5056891;28;46583;-74
2023/01/18 00:05:28;;;;;;;;;21.33;19.67;;;;;4.47;57.12;98806.69;5058070;28;45639;-74
2023/01/18 00:07:54;;;;;;;;;20.67;19.33;;;;;3.57;57.01;98680.66;5057335;28;45278;-74
2023/01/18 00:10:21;;;;;;;;;24.00;21.33;;;;;3.86;57.02;98720.69;5057249;28;45420;-72
2023/01/18 00:12:49;;;;;;;;;27.00;22.00;;;;;3.88;56.97;98745.03;5057282;28;46546;-72
2023/01/18 00:15:14;;;;;;;;;26.67;25.00;;;;;4.26;56.93;98806.19;5056606;28;45247;-72
2023/01/18 00:17:51;;;;;;;;;33.33;26.67;;;;;4.36;57.57;98820.06;5056795;28;45803;-72
2023/01/18 00:20:22;;;;;;;;;25.00;18.67;;;;;4.47;57.59;98829.53;5040197;28;45336;-72
2023/01/18 00:22:48;;;;;;;;;25.33;20.33;;;;;4.59;57.30;98833.56;5056408;28;45784;-74
2023/01/18 00:25:14;;;;;;;;;25.67;23.33;;;;;4.52;57.45;98814.94;5038499;28;47035;-74
2023/01/18 00:27:45;;;;;;;;;31.00;25.33;;;;;3.60;56.09;98664.59;5056684;28;45463;-72
2023/01/18 00:30:11;;;;;;;;;25.00;22.33;;;;;4.67;56.68;98854.69;5056895;28;45237;-73
2023/01/18 00:32:36;;;;;;;;;26.33;22.33;;;;;4.69;57.13;98829.03;5038183;28;47138;-74
2023/01/18 00:35:06;;;;;;;;;22.33;20.33;;;;;4.46;56.82;98791.88;5056399;28;45486;-72
2023/01/18 00:37:35;;;;;;;;;26.33;23.00;;;;;4.76;57.01;98851.13;5056424;28;45321;-73
2023/01/18 00:40:01;;;;;;;;;24.67;23.00;;;;;4.53;56.95;98813.94;5057873;28;45567;-71
2023/01/18 00:45:10;;;;;;;;;26.00;20.00;;;;;4.44;57.01;98799.09;5059736;28;45379;-72
2023/01/18 00:47:36;;;;;;;;;28.00;24.67;;;;;4.75;57.24;98838.94;5059696;28;45485;-73
2023/01/18 00:50:01;;;;;;;;;23.33;20.33;;;;;4.74;57.05;98837.31;5059852;28;45419;-73
2023/01/18 00:52:27;;;;;;;;;28.33;20.00;;;;;4.91;57.39;98858.50;5041284;28;46185;-74
2023/01/18 00:54:52;;;;;;;;;21.67;20.33;;;;;4.91;57.03;98859.31;5059929;28;45752;-72
2023/01/18 00:57:18;;;;;;;;;26.00;23.00;;;;;4.61;57.07;98822.91;5041310;28;45539;-72
2023/01/18 00:59:45;;;;;;;;;23.33;18.33;;;;;4.56;57.60;98834.69;5059948;28;45430;-72
2023/01/18 01:02:11;;;;;;;;;27.00;23.00;;;;;4.02;57.95;98766.53;5059964;28;46440;-71
2023/01/18 01:07:20;;;;;;;;;15.33;14.67;;;;;4.45;58.47;98832.31;5059881;28;45330;-73
2023/01/18 01:09:45;;;;;;;;;21.33;19.00;;;;;4.70;57.55;98862.28;5059733;28;45435;-73
2023/01/18 01:26:09;;;;;;;;;18.33;18.33;;;;;4.61;57.66;98915.03;5059468;28;45286;-71
2023/01/18 01:28:43;;;;;;;;;18.33;18.33;;;;;4.11;57.58;98834.78;5059260;28;45431;-70
2023/01/18 01:31:11;;;;;;;;;28.00;22.33;;;;;4.08;57.89;98831.66;5041006;28;45369;-72
2023/01/18 01:33:37;;;;;;;;;19.67;19.33;;;;;4.58;58.32;98910.84;5058937;28;46463;-73
2023/01/18 01:36:15;;;;;;;;;22.00;20.00;;;;;4.34;57.76;98869.38;5058781;28;45472;-72
2023/01/18 01:38:41;;;;;;;;;20.33;17.33;;;;;4.67;57.70;98912.59;5040873;28;45282;-73
2023/01/18 01:41:17;;;;;;;;;20.33;18.00;;;;;4.67;57.80;98911.78;5059317;28;45261;-71
2023/01/18 01:43:46;;;;;;;;;17.67;16.00;;;;;4.67;57.72;98925.75;5040657;28;47526;-73
2023/01/18 01:46:14;;;;;;;;;21.00;15.67;;;;;4.70;58.42;98940.44;5058510;28;45270;-72
2023/01/18 01:48:40;;;;;;;;;20.00;18.33;;;;;4.59;57.99;98917.78;5058813;28;45330;-72
2023/01/18 01:51:06;;;;;;;;;23.67;18.67;;;;;4.75;57.83;98946.06;5058810;28;45285;-74
2023/01/18 01:53:31;;;;;;;;;19.33;18.00;;;;;4.72;57.90;98938.47;5058522;28;46457;-72
2023/01/18 01:55:56;;;;;;;;;25.67;19.33;;;;;3.70;58.15;98765.22;5058692;28;45216;-72
2023/01/18 01:58:27;;;;;;;;;17.67;15.33;;;;;4.64;57.97;98936.59;5058571;28;45546;-73
2023/01/18 02:00:53;;;;;;;;;18.00;18.00;;;;;4.61;57.70;98920.28;5040585;28;45657;-71
2023/01/18 02:03:20;;;;;;;;;21.00;16.00;;;;;4.59;57.81;98921.22;5040342;28;47592;-72
2023/01/18 02:05:51;;;;;;;;;19.33;17.67;;;;;4.13;57.50;98843.34;5040616;28;45469;-72
2023/01/18 02:08:23;;;;;;;;;19.00;17.00;;;;;4.75;58.14;98946.88;5040423;28;45545;-72
2023/01/18 02:10:50;;;;;;;;;20.00;17.67;;;;;4.73;57.92;98948.84;5059001;28;45490;-71
2023/01/18 02:13:18;;;;;;;;;18.33;17.00;;;;;4.20;57.47;98857.56;5040589;28;47702;-71
2023/01/18 02:15:56;;;;;;;;;17.33;16.00;;;;;4.80;57.54;98954.31;5058428;28;45486;-73
2023/01/18 02:18:31;;;;;;;;;21.33;17.33;;;;;4.77;56.74;98957.25;5058441;28;45311;-72
2023/01/18 02:21:08;;;;;;;;;25.33;18.00;;;;;4.77;57.66;98960.72;5061670;28;45167;-72
2023/01/18 02:23:57;;;;;;;;;21.67;18.67;;;;;4.74;57.90;98960.19;5058677;28;45341;-69
2023/01/18 02:26:51;;;;;;;;;18.67;15.67;;;;;4.80;58.00;98962.22;5058495;28;45345;-72
2023/01/18 02:29:19;;;;;;;;;19.00;16.33;;;;;4.82;57.33;98970.81;5058200;28;45332;-73
2023/01/18 02:32:00;;;;;;;;;18.33;14.67;;;;;4.78;57.45;98970.28;5058270;28;45565;-71
2023/01/18 02:34:40;;;;;;;;;19.67;13.67;;;;;4.61;57.19;98957.13;5058038;28;45887;-73
2023/01/18 02:37:29;;;;;;;;;14.67;13.00;;;;;4.59;56.90;98981.75;5039906;28;45356;-74
2023/01/18 02:40:15;;;;;;;;;15.33;13.33;;;;;3.50;57.72;98845.94;5057895;28;45257;-72
2023/01/18 02:48:20;;;;;;;;;12.33;9.33;;;;;4.29;57.29;98963.69;5057732;28;45593;-72
2023/01/18 02:50:46;;;;;;;;;11.33;10.00;;;;;3.95;57.96;98924.84;5039724;28;45447;-73
2023/01/18 02:53:13;;;;;;;;;14.00;10.67;;;;;4.13;57.82;98948.56;5039647;28;45545;-72
2023/01/18 02:55:57;;;;;;;;;8.33;8.33;;;;;4.35;57.84;98986.78;5057716;28;45745;-72
2023/01/18 02:58:30;;;;;;;;;8.00;8.00;;;;;4.17;57.63;98949.09;5039415;28;45396;-72
2023/01/18 03:01:09;;;;;;;;;8.67;7.00;;;;;4.46;57.79;98980.50;5057652;28;45355;-72
2023/01/18 03:03:35;;;;;;;;;7.67;7.00;;;;;4.28;57.57;98973.41;5057197;28;45519;-73
2023/01/18 03:06:04;;;;;;;;;12.00;9.00;;;;;4.46;57.36;98991.03;5057306;28;46520;-74
2023/01/18 03:08:46;;;;;;;;;9.00;9.00;;;;;4.23;56.51;98953.78;5057542;28;45258;-72
2023/01/18 03:11:19;;;;;;;;;8.67;7.33;;;;;3.89;56.72;98912.28;5057646;28;45486;-72
2023/01/18 03:14:00;;;;;;;;;14.00;9.00;;;;;4.40;56.77;99012.63;5057401;28;45314;-70
2023/01/18 03:17:24;;;;;;;;;12.67;12.67;;;;;4.34;56.40;98998.28;5057000;28;46317;-71
2023/01/18 03:20:06;;;;;;;;;12.00;10.33;;;;;4.19;57.16;98973.44;4993680;28;45368;-73
2023/01/18 03:25:47;;;;;;;;;10.33;8.33;;;;;4.46;56.81;99022.59;5057550;28;45322;-72
2023/01/18 03:34:13;;;;;;;;;13.00;11.00;;;;;4.42;57.14;99029.13;5058096;28;45368;-72
2023/01/18 03:36:46;;;;;;;;;15.00;12.00;;;;;3.92;57.26;98940.91;5039165;28;45323;-72
2023/01/18 03:39:18;;;;;;;;;13.00;10.33;;;;;3.36;57.11;98843.78;5056765;28;46452;-71
2023/01/18 03:41:48;;;;;;;;;8.00;8.00;;;;;4.22;57.06;98981.88;5056966;28;45401;-72
2023/01/18 03:44:36;;;;;;;;;14.00;13.00;;;;;4.00;57.18;98937.53;5039006;28;45403;-70
2023/01/18 03:47:03;;;;;;;;;13.67;12.33;;;;;4.35;57.83;98981.50;5057357;28;45614;-72
2023/01/18 03:49:31;;;;;;;;;14.33;14.33;;;;;4.45;56.83;99013.88;5038647;28;46648;-73
2023/01/18 03:52:08;;;;;;;;;14.67;10.67;;;;;4.54;57.25;99056.88;5056905;28;45168;-71
2023/01/18 03:54:46;;;;;;;;;12.67;12.67;;;;;4.44;57.63;99051.69;5055591;28;45654;-72
2023/01/18 03:57:37;;;;;;;;;14.00;13.67;;;;;4.45;58.01;99055.16;5058118;28;45518;-72
2023/01/18 04:00:04;;;;;;;;;21.67;20.67;;;;;4.52;57.89;99059.66;5060226;28;46609;-73
2023/01/18 04:02:30;;;;;;;;;19.33;15.00;;;;;3.47;58.07;98905.84;5058279;28;45368;-74
2023/01/18 04:04:57;;;;;;;;;21.00;17.00;;;;;4.43;58.04;99078.16;5060348;28;45469;-71
2023/01/18 04:07:24;;;;;;;;;19.00;17.00;;;;;4.25;58.01;99047.34;5057763;28;45532;-71
2023/01/18 04:09:50;;;;;;;;;19.33;15.33;;;;;4.31;58.53;99055.63;5038249;28;48021;-72
2023/01/18 04:12:15;;;;;;;;;19.33;18.67;;;;;4.37;58.63;99060.28;5056589;28;45319;-71
2023/01/18 04:14:41;;;;;;;;;21.67;19.67;;;;;3.84;58.89;98976.81;5038459;28;45377;-72
2023/01/18 04:17:06;;;;;;;;;23.33;20.00;;;;;3.40;58.03;98905.56;5059905;28;45403;-72
2023/01/18 04:19:31;;;;;;;;;17.33;17.33;;;;;4.11;57.75;99044.34;5059459;28;57519;-71
2023/01/18 04:21:56;;;;;;;;;16.00;15.33;;;;;4.21;57.78;99071.47;5060006;28;45355;-71
2023/01/18 04:24:22;;;;;;;;;19.00;15.00;;;;;4.44;58.64;99099.06;5060129;28;45451;-72
2023/01/18 04:26:47;;;;;;;;;18.33;14.67;;;;;4.31;57.55;99105.59;5060353;28;45387;-70
2023/01/18 04:29:12;;;;;;;;;15.00;14.00;;;;;4.42;58.40;99114.16;5060751;28;45493;-73
2023/01/18 04:31:38;;;;;;;;;11.33;11.00;;;;;4.49;57.62;99103.88;5059568;28;53377;-72
2023/01/18 04:34:03;;;;;;;;;23.33;20.67;;;;;4.37;57.42;99105.03;5060130;28;45475;-73
2023/01/18 04:36:29;;;;;;;;;22.67;15.00;;;;;4.22;57.72;99096.78;5060090;28;45243;-71
2023/01/18 04:38:54;;;;;;;;;18.67;17.33;;;;;4.38;58.15;99123.28;5041419;28;47094;-73
2023/01/18 04:41:20;;;;;;;;;17.67;13.33;;;;;3.35;57.85;98958.53;5059521;28;45351;-72
2023/01/18 04:43:46;;;;;;;;;19.00;14.00;;;;;4.18;57.53;99109.38;5060059;28;45408;-73
2023/01/18 04:46:11;;;;;;;;;14.33;14.00;;;;;4.35;57.63;99142.00;5041696;28;45342;-72
2023/01/18 04:48:36;;;;;;;;;19.67;13.67;;;;;4.39;57.75;99138.09;5061288;28;60501;-71
2023/01/18 04:51:02;;;;;;;;;16.67;14.00;;;;;4.15;57.52;99106.19;5048036;28;46016;-73
2023/01/18 04:53:27;;;;;;;;;20.00;15.67;;;;;4.23;57.29;99103.72;5059383;28;45473;-72
2023/01/18 04:55:52;;;;;;;;;17.67;12.67;;;;;4.22;57.72;99088.91;5068180;28;45324;-72
2023/01/18 04:58:18;;;;;;;;;17.00;14.00;;;;;4.45;57.46;99132.28;5059407;28;46235;-71
2023/01/18 05:00:43;;;;;;;;;17.00;14.33;;;;;4.41;57.84;99128.28;5041350;28;46113;-73
2023/01/18 05:03:10;;;;;;;;;19.00;17.00;;;;;3.69;57.36;99010.59;5040623;28;45785;-72
2023/01/18 05:05:37;;;;;;;;;18.67;15.00;;;;;4.50;56.95;99160.78;5059008;28;45455;-71
2023/01/18 05:08:02;;;;;;;;;19.33;14.00;;;;;4.34;57.33;99132.44;5058268;28;45540;-71
2023/01/18 05:10:28;;;;;;;;;16.33;15.00;;;;;4.47;57.26;99142.66;5058939;28;45341;-73
2023/01/18 05:12:53;;;;;;;;;18.33;15.00;;;;;4.47;58.06;99143.50;5062039;27;45534;-70
2023/01/18 05:15:18;;;;;;;;;21.00;19.00;;;;;4.24;57.51;99108.00;5059514;28;45308;-71
2023/01/18 05:17:44;;;;;;;;;16.67;15.00;;;;;4.22;57.55;99109.94;5058451;28;45755;-73
2023/01/18 05:20:10;;;;;;;;;16.67;15.00;;;;;4.49;57.49;99146.81;5058510;28;53477;-73
2023/01/18 05:22:36;;;;;;;;;13.33;13.33;;;;;3.58;57.03;99000.22;5058450;28;45441;-72
2023/01/18 05:25:05;;;;;;;;;16.33;14.00;;;;;4.51;57.81;99158.00;5059069;28;45410;-72
2023/01/18 05:27:31;;;;;;;;;16.67;16.67;;;;;4.54;57.09;99162.97;5058215;28;45730;-72
2023/01/18 05:29:56;;;;;;;;;18.00;18.00;;;;;4.65;57.63;99169.88;5040315;28;45260;-72
2023/01/18 05:32:22;;;;;;;;;18.00;14.00;;;;;4.28;57.19;99099.66;5058725;28;45473;-72
2023/01/18 05:34:48;;;;;;;;;18.33;15.00;;;;;4.26;57.06;99101.59;5022186;28;45502;-71
2023/01/18 05:37:14;;;;;;;;;14.67;13.00;;;;;4.57;57.14;99156.59;5038847;28;45262;-72
2023/01/18 05:39:39;;;;;;;;;18.67;18.33;;;;;4.62;56.79;99183.34;5038923;28;45258;-73
2023/01/18 05:42:05;;;;;;;;;16.67;14.00;;;;;4.32;57.04;99147.56;5038962;28;45436;-72
2023/01/18 05:44:30;;;;;;;;;16.33;15.00;;;;;4.40;57.11;99170.50;5038907;28;45496;-73
2023/01/18 05:46:57;;;;;;;;;18.00;13.67;;;;;4.43;57.54;99180.78;5058878;28;46785;-70
2023/01/18 05:49:22;;;;;;;;;19.00;15.67;;;;;4.52;56.90;99200.94;5042000;28;45721;-72
2023/01/18 05:51:47;;;;;;;;;19.00;15.33;;;;;4.46;57.83;99194.47;5058688;28;45864;-71
2023/01/18 05:54:13;;;;;;;;;16.33;16.33;;;;;4.31;57.45;99171.38;5039887;28;45460;-72
2023/01/18 05:56:38;;;;;;;;;19.67;16.67;;;;;4.54;57.61;99210.34;5040200;28;48503;-73
2023/01/18 05:59:04;;;;;;;;;19.00;16.33;;;;;4.59;57.01;99213.38;5038699;28;45368;-72
2023/01/18 06:01:30;;;;;;;;;15.67;14.67;;;;;4.59;57.14;99207.28;5020380;28;45225;-73
2023/01/18 06:03:56;;;;;;;;;16.00;12.67;;;;;4.56;58.09;99207.56;5038431;28;45250;-69
2023/01/18 06:06:21;;;;;;;;;22.67;18.67;;;;;4.67;57.84;99212.69;5038029;28;46046;-71
2023/01/18 06:08:47;;;;;;;;;14.67;14.00;;;;;4.69;57.80;99215.16;5038494;28;45206;-71
2023/01/18 06:11:12;;;;;;;;;14.67;14.00;;;;;4.63;57.97;99213.94;5021750;28;45538;-71
2023/01/18 06:13:37;;;;;;;;;15.67;13.00;;;;;4.07;57.51;99133.22;5056962;28;45542;-73
2023/01/18 06:16:03;;;;;;;;;24.00;19.00;;;;;4.54;57.62;99210.34;5042416;28;51447;-72
2023/01/18 06:18:31;;;;;;;;;15.33;14.00;;;;;4.44;57.83;99193.78;5037594;28;45313;-73
2023/01/18 06:20:58;;;;;;;;;18.00;17.67;;;;;4.68;58.36;99240.66;5038287;28;45499;-73
2023/01/18 06:23:24;;;;;;;;;11.00;9.33;;;;;4.52;56.79;99217.56;5066712;28;45470;-73
2023/01/18 06:25:50;;;;;;;;;12.67;9.67;;;;;4.26;57.45;99183.16;5057821;28;45580;-72
2023/01/18 06:28:15;;;;;;;;;21.00;18.67;;;;;4.60;57.27;99253.69;5057627;28;45440;-72
2023/01/18 06:30:41;;;;;;;;;15.33;15.33;;;;;4.30;57.14;99217.06;5056360;28;45349;-74
2023/01/18 06:33:08;;;;;;;;;19.00;15.33;;;;;4.36;57.44;99238.38;5051587;28;45360;-71
2023/01/18 06:35:34;;;;;;;;;15.00;15.00;;;;;4.58;57.25;99272.25;5039354;28;47527;-72
2023/01/18 06:38:01;;;;;;;;;21.33;18.67;;;;;4.57;58.04;99273.22;5055763;28;45570;-73
2023/01/18 06:40:27;;;;;;;;;17.67;17.33;;;;;4.28;57.44;99236.47;5057927;28;45466;-72
2023/01/18 06:42:52;;;;;;;;;21.33;17.33;;;;;4.35;57.50;99263.03;5058392;28;45475;-71
2023/01/18 06:45:20;;;;;;;;;20.00;15.00;;;;;4.57;57.14;99293.47;5057437;28;45558;-72
2023/01/18 06:47:48;;;;;;;;;18.00;18.00;;;;;4.56;58.16;99297.88;5058661;28;45295;-71
2023/01/18 06:50:14;;;;;;;;;22.33;18.33;;;;;4.57;58.02;99302.19;5049539;28;45556;-74
2023/01/18 06:52:41;;;;;;;;;17.67;16.33;;;;;3.94;57.59;99214.19;5041563;28;45484;-72
2023/01/18 06:55:07;;;;;;;;;12.67;12.67;;;;;4.25;58.09;99284.09;5058124;28;48780;-72
2023/01/18 06:57:32;;;;;;;;;19.33;18.33;;;;;4.13;57.73;99263.31;5059308;28;45402;-73
2023/01/18 06:59:59;;;;;;;;;21.00;20.67;;;;;4.42;57.78;99300.16;5039513;28;45611;-72
2023/01/18 07:02:25;;;;;;;;;20.33;18.00;;;;;4.47;57.95;99314.53;5057417;28;45494;-73
2023/01/18 07:04:50;;;;;;;;;20.00;14.67;;;;;3.16;58.15;99091.66;5038865;28;47561;-74
2023/01/18 07:07:16;;;;;;;;;18.33;15.00;;;;;3.57;58.19;99161.50;5052272;28;45475;-73
2023/01/18 07:09:41;;;;;;;;;21.33;19.33;;;;;4.06;58.10;99255.16;5038574;28;45635;-73
2023/01/18 07:12:06;;;;;;;;;24.00;17.00;;;;;4.49;57.62;99327.56;5038415;28;45317;-75
2023/01/18 07:14:33;;;;;;;;;24.00;19.00;;;;;4.49;57.34;99317.84;5037492;28;45535;-71
2023/01/18 07:16:58;;;;;;;;;20.33;18.67;;;;;4.49;58.03;99331.03;5038574;28;45477;-75
2023/01/18 07:19:23;;;;;;;;;18.67;18.33;;;;;4.39;58.28;99310.94;5042186;28;45297;-77
2023/01/18 07:21:50;;;;;;;;;15.67;12.67;;;;;4.43;58.34;99323.69;5033717;28;45630;-75
2023/01/18 07:24:17;;;;;;;;;16.33;16.00;;;;;4.51;58.15;99347.50;5049535;28;45364;-73
2023/01/18 07:26:42;;;;;;;;;16.67;15.00;;;;;4.48;57.61;99333.78;5041444;28;45542;-72
2023/01/18 07:29:08;;;;;;;;;24.00;20.33;;;;;3.98;57.96;99265.53;5041643;28;45476;-75
2023/01/18 07:31:33;;;;;;;;;21.00;17.33;;;;;4.19;58.47;99296.94;5020970;28;45525;-74
2023/01/18 07:33:59;;;;;;;;;15.67;15.00;;;;;4.22;58.69;99309.84;5037712;28;46035;-72
2023/01/18 07:36:24;;;;;;;;;17.67;16.00;;;;;4.52;58.08;99359.69;5037208;28;45484;-74
2023/01/18 07:38:49;;;;;;;;;18.67;18.67;;;;;4.54;58.49;99372.69;5037922;28;45310;-73
2023/01/18 07:41:16;;;;;;;;;24.00;20.00;;;;;4.54;58.29;99380.59;5041739;28;45527;-71
2023/01/18 07:43:43;;;;;;;;;22.67;21.00;;;;;4.53;58.76;99371.88;5056655;28;45633;-75
2023/01/18 07:46:15;;;;;;;;;21.33;18.33;;;;;4.51;58.88;99392.22;5057857;28;45457;-72
2023/01/18 07:48:41;;;;;;;;;27.33;20.33;;;;;3.98;58.72;99313.69;5039117;28;45512;-73
2023/01/18 07:51:08;;;;;;;;;27.33;24.67;;;;;4.49;59.03;99399.44;5059067;28;45567;-73
2023/01/18 07:53:35;;;;;;;;;25.33;23.00;;;;;4.25;58.90;99357.75;5060505;28;45657;-72
2023/01/18 07:56:10;;;;;;;;;26.67;24.33;;;;;4.44;59.52;99398.19;5061594;28;45400;-74
2023/01/18 07:58:35;;;;;;;;;23.33;23.33;;;;;4.33;59.50;99395.69;5061529;28;45372;-73
2023/01/18 08:01:07;;;;;;;;;28.67;25.00;;;;;3.73;59.56;99303.69;5060740;28;45385;-74
2023/01/18 08:03:32;;;;;;;;;27.67;24.00;;;;;3.97;59.33;99338.31;5041846;28;48457;-73
2023/01/18 08:05:59;;;;;;;;;29.67;22.33;;;;;4.40;59.17;99396.78;5057300;28;46457;-72
2023/01/18 08:08:26;;;;;;;;;22.33;19.67;;;;;4.22;59.21;99358.03;5063828;28;45333;-72
2023/01/18 08:10:53;;;;;;;;;25.67;23.33;;;;;4.58;58.76;99416.19;5047386;28;45430;-73
2023/01/18 08:13:19;;;;;;;;;37.67;32.67;;;;;4.35;59.65;99370.91;5059940;28;46266;-72
2023/01/18 08:15:44;;;;;;;;;35.67;30.67;;;;;4.06;59.36;99326.16;5068783;28;45297;-76
2023/01/18 08:18:10;;;;;;;;;33.67;29.33;;;;;4.69;58.91;99434.50;5042270;28;45354;-74
2023/01/18 08:20:36;;;;;;;;;27.00;25.67;;;;;3.93;58.80;99305.38;5041910;28;45250;-75
2023/01/18 08:23:02;;;;;;;;;24.00;21.33;;;;;4.57;59.09;99418.00;5059555;28;45701;-73
2023/01/18 08:25:29;;;;;;;;;28.00;25.00;;;;;4.55;58.52;99416.47;5041487;28;45884;-76
2023/01/18 08:27:57;;;;;;;;;36.33;32.00;;;;;4.61;59.20;99436.16;5047682;28;45619;-77
2023/01/18 08:30:26;;;;;;;;;47.00;40.00;;;;;4.58;59.00;99448.59;5060864;28;45663;-73
2023/01/18 08:32:56;;;;;;;;;29.00;25.00;;;;;4.30;59.28;99407.31;5035311;28;49147;-72
2023/01/18 08:35:30;;;;;;;;;30.00;26.00;;;;;4.57;59.56;99456.63;5049960;28;45396;-73
2023/01/18 08:37:57;;;;;;;;;30.00;25.00;;;;;2.66;59.34;99145.03;5050182;28;45670;-73
2023/01/18 08:40:24;;;;;;;;;32.67;23.67;;;;;4.30;59.21;99406.50;5059771;28;45479;-72
2023/01/18 08:42:50;;;;;;;;;25.33;23.67;;;;;4.67;58.75;99446.97;5057392;28;46392;-72
2023/01/18 08:45:16;;;;;;;;;30.67;27.00;;;;;3.85;59.14;99286.84;5075435;28;46274;-71
2023/01/18 08:47:42;;;;;;;;;37.00;31.00;;;;;5.08;58.22;99451.09;5042571;28;45407;-73
2023/01/18 08:50:09;;;;;;;;;28.67;28.33;;;;;5.17;57.61;99452.88;5061271;28;45561;-74
2023/01/18 08:52:35;;;;;;;;;29.33;29.00;;;;;5.05;57.58;99429.50;5041371;28;45803;-73
2023/01/18 08:55:03;;;;;;;;;28.33;24.00;;;;;5.27;57.02;99439.72;5041560;28;45391;-74
2023/01/18 08:57:29;;;;;;;;;41.67;35.33;;;;;5.55;56.76;99466.94;5060154;28;45321;-72
2023/01/18 08:59:55;;;;;;;;;41.00;36.33;;;;;5.44;56.21;99417.88;5042374;28;45427;-73
2023/01/18 09:02:21;;;;;;;;;32.67;26.67;;;;;5.83;55.81;99438.84;5075272;28;46670;-72
2023/01/18 09:04:47;;;;;;;;;48.33;39.00;;;;;6.39;55.29;99466.88;5061045;28;45333;-72
2023/01/18 09:07:13;;;;;;;;;23.67;23.67;;;;;6.69;53.73;99486.84;5041616;28;45263;-73
2023/01/18 09:09:38;;;;;;;;;29.33;28.67;;;;;6.89;53.59;99483.09;5060474;28;45489;-72
2023/01/18 09:12:04;;;;;;;;;31.00;27.33;;;;;7.22;52.89;99507.16;5065425;28;45902;-72
2023/01/18 09:14:29;;;;;;;;;39.67;34.00;;;;;8.03;51.24;99502.41;5061696;28;45318;-72
2023/01/18 09:16:55;;;;;;;;;34.00;27.33;;;;;9.06;48.92;99473.91;5059329;28;45468;-72
2023/01/18 09:19:20;;;;;;;;;31.33;28.33;;;;;10.50;46.81;99507.44;5074141;27;45740;-72
2023/01/18 09:21:47;;;;;;;;;29.33;27.00;;;;;11.33;44.14;99479.28;5075160;27;46672;-75
2023/01/18 09:24:13;;;;;;;;;30.67;29.33;;;;;12.04;42.29;99478.78;5059028;28;45464;-73
2023/01/18 09:26:39;;;;;;;;;31.67;27.00;;;;;12.15;41.45;99510.25;5060569;28;45339;-73
2023/01/18 09:29:05;;;;;;;;;31.00;28.00;;;;;10.68;42.03;99384.09;5061115;28;45493;-73
2023/01/18 09:31:30;;;;;;;;;35.33;30.67;;;;;10.61;42.87;99448.59;5059305;28;45562;-72
2023/01/18 09:33:56;;;;;;;;;34.00;30.00;;;;;10.52;43.63;99507.25;5041852;28;45167;-74
2023/01/18 09:36:25;;;;;;;;;32.33;27.67;;;;;10.50;43.93;99549.97;5059826;28;45289;-73
2023/01/18 09:38:51;;;;;;;;;31.00;30.33;;;;;8.94;44.48;99335.56;5046317;28;45526;-71
2023/01/18 09:41:34;;;;;;;;;29.67;27.33;;;;;9.83;45.27;99530.88;5045322;28;45762;-73
2023/01/18 09:44:08;;;;;;;;;34.00;29.00;;;;;9.76;45.91;99551.13;5042997;28;45565;-72
2023/01/18 09:46:36;;;;;;;;;27.00;25.33;;;;;9.50;45.69;99553.13;5042734;28;45274;-77
2023/01/18 09:49:06;;;;;;;;;28.00;23.33;;;;;8.27;46.17;99403.72;5042584;28;45668;-74
2023/01/18 09:51:43;;;;;;;;;26.33;24.00;;;;;9.13;47.06;99570.34;5040093;28;47409;-72
2023/01/18 09:54:28;;;;;;;;;31.67;25.67;;;;;8.79;46.97;99568.59;5058674;28;45359;-73
2023/01/18 09:57:15;;;;;;;;;29.33;26.33;;;;;8.64;47.56;99577.34;5058734;28;45269;-74
2023/01/18 09:59:42;;;;;;;;;19.33;18.00;;;;;8.47;47.54;99576.44;5058747;28;45532;-73
2023/01/18 10:02:41;;;;;;;;;25.67;23.00;;;;;8.23;48.03;99570.00;5074063;28;48546;-72
2023/01/18 10:05:20;;;;;;;;;25.67;24.67;;;;;8.00;48.36;99560.91;5016790;28;45379;-73
2023/01/18 10:08:01;;;;;;;;;30.00;26.00;;;;;7.97;48.53;99579.75;5044350;28;45539;-74
2023/01/18 10:10:37;;;;;;;;;23.67;22.00;;;;;7.86;49.37;99587.97;5060789;28;45736;-74
2023/01/18 10:13:36;;;;;;;;;18.67;18.67;;;;;7.69;49.24;99586.19;5059432;28;45759;-73
2023/01/18 10:16:02;;;;;;;;;24.67;22.67;;;;;7.11;49.53;99515.31;5023994;28;45650;-73
2023/01/18 10:18:29;;;;;;;;;19.33;18.33;;;;;6.57;50.31;99446.59;5058548;28;45482;-73
2023/01/18 10:21:01;;;;;;;;;20.67;18.67;;;;;6.59;50.22;99468.41;5058787;28;45612;-73
2023/01/18 10:23:40;;;;;;;;;23.00;22.00;;;;;7.24;50.51;99576.56;5040376;28;47368;-72
2023/01/18 10:26:16;;;;;;;;;18.33;15.67;;;;;7.04;50.94;99586.44;5040854;28;45393;-73
2023/01/18 10:28:52;;;;;;;;;11.00;9.67;;;;;6.69;51.21;99551.06;5058889;28;45314;-72
2023/01/18 10:31:35;;;;;;;;;21.00;17.67;;;;;6.01;51.77;99437.13;5059440;28;45342;-73
2023/01/18 10:34:03;;;;;;;;;15.33;14.00;;;;;6.52;51.60;99524.63;5058968;28;45409;-71
2023/01/18 10:36:34;;;;;;;;;17.00;16.00;;;;;6.05;51.85;99458.75;5058146;28;45523;-71
2023/01/18 10:39:03;;;;;;;;;15.33;15.33;;;;;5.85;51.76;99425.50;5040336;28;45562;-72
2023/01/18 10:41:39;;;;;;;;;18.00;15.00;;;;;6.95;52.24;99609.28;5059035;28;45436;-73
2023/01/18 10:44:08;;;;;;;;;17.00;15.33;;;;;5.96;52.18;99444.63;5073859;28;45573;-73
2023/01/18 10:46:33;;;;;;;;;15.00;13.33;;;;;6.35;52.62;99511.22;5058119;28;45427;-74
2023/01/18 10:48:59;;;;;;;;;17.00;12.67;;;;;6.15;52.73;99488.53;5039133;28;45450;-75
2023/01/18 10:51:29;;;;;;;;;12.33;11.33;;;;;5.56;52.62;99399.25;5072249;28;45607;-72
2023/01/18 10:53:56;;;;;;;;;16.67;15.33;;;;;6.78;53.10;99604.81;5058269;28;45785;-71
2023/01/18 10:56:24;;;;;;;;;16.33;13.00;;;;;6.71;53.19;99601.09;5041475;28;45301;-73
2023/01/18 10:58:49;;;;;;;;;14.33;13.67;;;;;6.75;53.64;99610.38;5058813;28;45483;-71
2023/01/18 11:01:22;;;;;;;;;11.00;11.00;;;;;6.77;53.47;99616.34;5040795;28;45570;-74
2023/01/18 11:04:06;;;;;;;;;19.00;13.00;;;;;6.79;53.49;99613.56;5040622;28;45348;-71
2023/01/18 11:06:49;;;;;;;;;9.67;9.67;;;;;6.01;53.67;99481.97;5057975;28;45471;-72
2023/01/18 11:09:34;;;;;;;;;14.00;12.00;;;;;6.76;53.78;99604.13;5058429;28;45184;-72
2023/01/18 11:12:33;;;;;;;;;11.33;10.33;;;;;6.72;53.82;99608.03;5044122;28;46979;-74
2023/01/18 11:15:14;;;;;;;;;13.00;12.00;;;;;6.73;54.40;99604.41;5042107;28;46652;-74
2023/01/18 11:17:45;;;;;;;;;13.00;13.00;;;;;6.09;53.83;99483.88;5042392;28;45573;-71
2023/01/18 11:20:22;;;;;;;;;11.67;9.33;;;;;6.78;54.08;99609.25;5057940;28;45343;-73
2023/01/18 11:23:00;;;;;;;;;8.33;8.33;;;;;5.83;54.11;99445.91;5040606;28;45245;-71
2023/01/18 11:25:33;;;;;;;;;14.67;11.33;;;;;5.94;53.88;99443.09;5039479;28;48190;-71
2023/01/18 11:28:01;;;;;;;;;10.67;8.67;;;;;6.76;54.04;99582.16;5058341;28;45267;-74
2023/01/18 11:30:26;;;;;;;;;11.00;9.00;;;;;6.55;54.17;99538.34;5058506;28;45302;-72
2023/01/18 11:32:53;;;;;;;;;9.00;9.00;;;;;6.32;54.01;99505.41;5040598;28;45356;-75
2023/01/18 11:35:37;;;;;;;;;9.33;9.33;;;;;6.81;54.00;99586.03;5058023;28;46418;-71
2023/01/18 11:38:07;;;;;;;;;9.00;6.00;;;;;6.88;53.81;99580.97;5057409;28;45510;-72
2023/01/18 11:40:34;;;;;;;;;11.00;9.00;;;;;6.66;53.90;99542.63;5059186;28;45407;-73
2023/01/18 11:43:11;;;;;;;;;12.00;10.00;;;;;6.69;53.99;99544.94;5039932;28;45540;-73
2023/01/18 11:45:53;;;;;;;;;25.67;21.67;;;;;6.84;54.24;99556.69;5039625;28;45489;-72
2023/01/18 11:48:34;;;;;;;;;12.00;12.00;;;;;6.91;54.37;99568.31;5072809;28;45496;-72
2023/01/18 11:51:08;;;;;;;;;7.00;5.00;;;;;6.13;54.23;99447.47;5073192;27;45439;-70
2023/01/18 11:53:40;;;;;;;;;9.67;6.33;;;;;6.88;54.10;99576.53;5057636;28;45230;-72
2023/01/18 11:56:14;;;;;;;;;8.33;5.00;;;;;6.92;54.15;99577.88;5056978;28;45823;-72
2023/01/18 11:58:40;;;;;;;;;13.00;11.67;;;;;6.96;53.80;99573.13;5057640;28;45195;-73
2023/01/18 12:01:36;;;;;;;;;12.67;12.67;;;;;7.04;54.30;99580.34;5041790;28;45372;-72
2023/01/18 12:04:23;;;;;;;;;9.33;8.67;;;;;7.08;53.24;99581.69;5040059;28;45330;-73
2023/01/18 12:07:07;;;;;;;;;13.00;8.00;;;;;7.13;53.44;99574.13;5057438;28;45644;-72
2023/01/18 12:09:48;;;;;;;;;16.67;12.67;;;;;7.17;53.50;99576.31;5057410;28;45435;-72
2023/01/18 12:12:28;;;;;;;;;14.67;13.00;;;;;6.95;52.78;99560.91;5057628;28;45379;-72